Time;durP1;ratioP1;P1;durP2;ratioP2;P2;SDS_P1;SDS_P2;PMS_P1;PMS_P2;Temp;Humidity;BMP_temperature;BMP_pressure;BME280_temperature;BME280_humidity;BME280_pressure;Samples;Min_cycle;Max_cycle;Signal;HPM_P1;HPM_P2
2022/07/16 00:01:23;;;;;;;;;;;13.70;99.90;;;;;;5066935;28;19931;-54
2022/07/16 00:03:54;;;;;;;;;;;13.70;99.90;;;;;;5077993;28;19924;-60
2022/07/16 00:06:23;;;;;;;;;;;13.70;99.90;;;;;;5081466;28;19940;-58
2022/07/16 00:08:51;;;;;;;;;;;13.70;99.90;;;;;;5081063;28;19924;-58
2022/07/16 00:11:19;;;;;;;;;;;13.70;99.90;;;;;;5085671;28;20314;-59
2022/07/16 00:13:46;;;;;;;;;;;13.70;99.90;;;;;;5084998;28;20264;-60
2022/07/16 00:16:14;;;;;;;;;;;13.70;99.90;;;;;;5084054;28;19931;-58
2022/07/16 00:21:28;;;;;;;;;;;13.70;99.90;;;;;;5081393;28;19939;-60
2022/07/16 00:23:56;;;;;;;;;;;13.60;99.90;;;;;;5082917;28;19982;-60
2022/07/16 00:26:23;;;;;;;;;;;13.60;99.90;;;;;;5076328;28;20302;-58
2022/07/16 00:28:51;;;;;;;;;;;13.60;99.90;;;;;;5081030;28;19928;-59
2022/07/16 00:31:18;;;;;;;;;;;13.50;99.90;;;;;;5076909;28;19931;-60
2022/07/16 00:33:46;;;;;;;;;;;13.50;99.90;;;;;;5085982;28;20400;-59
2022/07/16 00:36:13;;;;;;;;;;;13.50;99.90;;;;;;5074591;28;19925;-60
2022/07/16 00:38:41;;;;;;;;;;;13.40;99.90;;;;;;5077014;28;19983;-59
2022/07/16 00:41:16;;;;;;;;;;;13.40;99.90;;;;;;5081201;28;19928;-59
2022/07/16 00:43:51;;;;;;;;;;;13.40;99.90;;;;;;5074143;28;20327;-57
2022/07/16 00:46:18;;;;;;;;;;;13.30;99.90;;;;;;5071414;28;19924;-57
2022/07/16 00:48:46;;;;;;;;;;;13.30;99.90;;;;;;5075995;28;20061;-59
2022/07/16 00:51:15;;;;;;;;;;;13.20;99.90;;;;;;5082093;28;19936;-59
2022/07/16 00:53:43;;;;;;;;;;;13.20;99.90;;;;;;5083986;28;19940;-59
2022/07/16 00:56:11;;;;;;;;;;;13.20;99.90;;;;;;5078867;28;19924;-59
2022/07/16 00:58:40;;;;;;;;;;;13.10;99.90;;;;;;5091588;28;19931;-56
2022/07/16 01:01:08;;;;;;;;;;;13.10;99.90;;;;;;5083586;28;19947;-58
2022/07/16 01:03:37;;;;;;;;;;;13.00;99.90;;;;;;5082997;28;19928;-59
2022/07/16 01:06:05;;;;;;;;;;;13.00;99.90;;;;;;5085078;28;20391;-57
2022/07/16 01:08:34;;;;;;;;;;;13.00;99.90;;;;;;5081735;28;20303;-58
2022/07/16 01:11:04;;;;;;;;;;;12.90;99.90;;;;;;5081290;28;20412;-57
2022/07/16 01:13:32;;;;;;;;;;;12.90;99.90;;;;;;5077965;28;19932;-58
2022/07/16 01:15:59;;;;;;;;;;;12.90;99.90;;;;;;5070679;28;19924;-57
2022/07/16 01:18:27;;;;;;;;;;;12.80;99.90;;;;;;5075860;28;19940;-59
2022/07/16 01:20:54;;;;;;;;;;;12.80;99.90;;;;;;5086447;28;19933;-59
2022/07/16 01:23:22;;;;;;;;;;;12.70;99.90;;;;;;5080737;28;19928;-59
2022/07/16 01:25:50;;;;;;;;;;;12.70;99.90;;;;;;5087666;28;20268;-58
2022/07/16 01:28:18;;;;;;;;;;;12.70;99.90;;;;;;5082197;28;19924;-58
2022/07/16 01:30:46;;;;;;;;;;;12.70;99.90;;;;;;5079025;28;20383;-59
2022/07/16 01:33:20;;;;;;;;;;;12.70;99.90;;;;;;5086080;28;19958;-60
2022/07/16 01:35:49;;;;;;;;;;;12.70;99.90;;;;;;5092853;28;19924;-58
2022/07/16 01:38:16;;;;;;;;;;;12.70;99.90;;;;;;5090999;28;19924;-58
2022/07/16 01:40:44;;;;;;;;;;;12.70;99.90;;;;;;5071428;28;19928;-60
2022/07/16 01:43:12;;;;;;;;;;;12.70;99.90;;;;;;5091849;28;19931;-59
2022/07/16 01:45:39;;;;;;;;;;;12.80;99.90;;;;;;5078184;28;20292;-56
2022/07/16 01:48:07;;;;;;;;;;;12.80;99.90;;;;;;5083017;28;19928;-58
2022/07/16 01:50:36;;;;;;;;;;;12.80;99.90;;;;;;5090594;28;20323;-61
2022/07/16 01:53:03;;;;;;;;;;;12.80;99.90;;;;;;5082645;28;19946;-59
2022/07/16 01:55:33;;;;;;;;;;;12.80;99.90;;;;;;5093563;28;19990;-58
2022/07/16 01:58:02;;;;;;;;;;;12.80;99.90;;;;;;5074549;28;19931;-59
2022/07/16 02:00:30;;;;;;;;;;;12.90;99.90;;;;;;5087453;28;19931;-55
2022/07/16 02:02:57;;;;;;;;;;;12.90;99.90;;;;;;5093164;28;19924;-54
2022/07/16 02:05:25;;;;;;;;;;;12.90;99.90;;;;;;5093478;28;19931;-54
2022/07/16 02:07:53;;;;;;;;;;;13.00;99.90;;;;;;5093330;28;19924;-54
2022/07/16 02:10:20;;;;;;;;;;;13.00;99.90;;;;;;5078007;28;19924;-53
2022/07/16 02:12:48;;;;;;;;;;;13.10;99.90;;;;;;5072930;28;19929;-55
2022/07/16 02:15:17;;;;;;;;;;;13.10;99.90;;;;;;5071758;28;19924;-53
2022/07/16 02:17:44;;;;;;;;;;;13.10;99.90;;;;;;5088036;28;19935;-54
2022/07/16 02:20:12;;;;;;;;;;;13.20;99.90;;;;;;5092197;28;19931;-54
2022/07/16 02:22:40;;;;;;;;;;;13.20;99.90;;;;;;5076616;28;19925;-54
2022/07/16 02:25:08;;;;;;;;;;;13.20;99.90;;;;;;5113531;28;19931;-53
2022/07/16 02:27:36;;;;;;;;;;;13.20;99.90;;;;;;5113580;28;19947;-53
2022/07/16 02:30:04;;;;;;;;;;;13.20;99.90;;;;;;5098949;28;19924;-54
2022/07/16 02:32:31;;;;;;;;;;;13.20;99.90;;;;;;5092411;28;19924;-58
2022/07/16 02:34:59;;;;;;;;;;;13.20;99.90;;;;;;5092931;28;20407;-56
2022/07/16 02:37:26;;;;;;;;;;;13.10;99.90;;;;;;5091496;28;19931;-58
2022/07/16 02:39:53;;;;;;;;;;;13.00;99.90;;;;;;5090684;28;19924;-57
2022/07/16 02:42:21;;;;;;;;;;;13.00;99.90;;;;;;5092739;28;19924;-57
2022/07/16 02:44:48;;;;;;;;;;;12.90;99.90;;;;;;5092747;28;19931;-57
2022/07/16 02:47:16;;;;;;;;;;;12.90;99.90;;;;;;5092596;28;19924;-58
2022/07/16 02:49:43;;;;;;;;;;;12.80;99.90;;;;;;5090190;28;20343;-58
2022/07/16 02:52:10;;;;;;;;;;;12.80;99.90;;;;;;5090730;28;20422;-60
2022/07/16 02:54:38;;;;;;;;;;;12.70;99.90;;;;;;5110922;28;19924;-58
2022/07/16 02:57:05;;;;;;;;;;;12.70;99.90;;;;;;5112626;28;20274;-60
2022/07/16 02:59:33;;;;;;;;;;;12.60;99.90;;;;;;5102343;28;19928;-59
2022/07/16 03:02:01;;;;;;;;;;;12.50;99.90;;;;;;5090527;28;19924;-60
2022/07/16 03:04:28;;;;;;;;;;;12.50;99.90;;;;;;5092447;28;19926;-59
2022/07/16 03:06:56;;;;;;;;;;;12.50;99.90;;;;;;5083850;28;20395;-57
2022/07/16 03:09:23;;;;;;;;;;;12.40;99.90;;;;;;5077335;28;19931;-59
2022/07/16 03:11:51;;;;;;;;;;;12.40;99.90;;;;;;5091994;28;19935;-61
2022/07/16 03:14:18;;;;;;;;;;;12.30;99.90;;;;;;5088882;28;19931;-60
2022/07/16 03:16:45;;;;;;;;;;;12.30;99.90;;;;;;5092069;28;19924;-60
2022/07/16 03:19:13;;;;;;;;;;;12.20;99.90;;;;;;5090410;28;19931;-63
2022/07/16 03:21:40;;;;;;;;;;;12.20;99.90;;;;;;5092305;28;19931;-59
2022/07/16 03:24:08;;;;;;;;;;;12.10;99.90;;;;;;5106489;28;19924;-60
2022/07/16 03:26:35;;;;;;;;;;;12.10;99.90;;;;;;5111083;28;19927;-60
2022/07/16 03:29:03;;;;;;;;;;;12.00;99.90;;;;;;5108762;28;19923;-58
2022/07/16 03:31:30;;;;;;;;;;;12.00;99.90;;;;;;5073224;28;19924;-58
2022/07/16 03:33:58;;;;;;;;;;;11.90;99.90;;;;;;5092117;28;19928;-58
2022/07/16 03:36:26;;;;;;;;;;;11.90;99.90;;;;;;5091925;28;19931;-57
2022/07/16 03:39:04;;;;;;;;;;;11.80;99.90;;;;;;5090155;28;19924;-58
2022/07/16 03:41:32;;;;;;;;;;;11.80;99.90;;;;;;5090403;28;19924;-59
2022/07/16 03:43:59;;;;;;;;;;;11.70;99.90;;;;;;5091978;28;19924;-57
2022/07/16 03:46:27;;;;;;;;;;;11.70;99.90;;;;;;5091732;28;20002;-59
2022/07/16 03:48:55;;;;;;;;;;;11.60;99.90;;;;;;5091123;28;19928;-59
2022/07/16 03:51:22;;;;;;;;;;;11.60;99.90;;;;;;5071505;28;19924;-60
2022/07/16 03:53:50;;;;;;;;;;;11.50;99.90;;;;;;5094925;28;19935;-59
2022/07/16 03:56:17;;;;;;;;;;;11.50;99.90;;;;;;5111769;28;19924;-58
2022/07/16 03:58:45;;;;;;;;;;;11.50;99.90;;;;;;5112211;28;19934;-58
2022/07/16 04:01:12;;;;;;;;;;;11.40;99.90;;;;;;5090703;28;19925;-57
2022/07/16 04:03:40;;;;;;;;;;;11.40;99.90;;;;;;5091619;28;19924;-58
2022/07/16 04:06:08;;;;;;;;;;;11.40;99.90;;;;;;5091701;28;19924;-59
2022/07/16 04:08:35;;;;;;;;;;;11.40;99.90;;;;;;5091748;28;19928;-59
2022/07/16 04:11:03;;;;;;;;;;;11.40;99.90;;;;;;5090405;28;19928;-59
2022/07/16 04:13:30;;;;;;;;;;;11.30;99.90;;;;;;5091518;28;20291;-56
2022/07/16 04:15:58;;;;;;;;;;;11.30;99.90;;;;;;5090276;28;19931;-59
2022/07/16 04:18:25;;;;;;;;;;;11.30;99.90;;;;;;5091492;28;19924;-56
2022/07/16 04:20:53;;;;;;;;;;;11.20;99.90;;;;;;5090401;28;19924;-57
2022/07/16 04:23:20;;;;;;;;;;;11.20;99.90;;;;;;5099228;28;19926;-59
2022/07/16 04:25:48;;;;;;;;;;;11.20;99.90;;;;;;5111855;28;19924;-58
2022/07/16 04:28:15;;;;;;;;;;;11.20;99.90;;;;;;5111767;28;19935;-58
2022/07/16 04:30:43;;;;;;;;;;;11.20;99.90;;;;;;5095445;28;19924;-59
2022/07/16 04:33:11;;;;;;;;;;;11.10;99.90;;;;;;5091419;28;19924;-58
2022/07/16 04:35:38;;;;;;;;;;;11.20;99.90;;;;;;5091594;28;19924;-59
2022/07/16 04:38:05;;;;;;;;;;;11.20;99.90;;;;;;5091388;28;19928;-55
2022/07/16 04:40:33;;;;;;;;;;;11.30;99.90;;;;;;5076618;28;20388;-54
2022/07/16 04:43:00;;;;;;;;;;;11.30;99.90;;;;;;5071119;28;19925;-56
2022/07/16 04:45:28;;;;;;;;;;;11.40;99.90;;;;;;5071227;28;19932;-53
2022/07/16 04:47:55;;;;;;;;;;;11.50;99.90;;;;;;5076406;28;19928;-54
2022/07/16 04:50:23;;;;;;;;;;;11.50;99.90;;;;;;5077542;28;20399;-55
2022/07/16 04:52:54;;;;;;;;;;;11.60;99.90;;;;;;5095839;28;19924;-55
2022/07/16 04:55:21;;;;;;;;;;;11.70;99.90;;;;;;5111813;28;19923;-53
2022/07/16 04:57:48;;;;;;;;;;;11.70;99.90;;;;;;5104150;28;19938;-54
2022/07/16 05:00:24;;;;;;;;;;;11.80;99.90;;;;;;5089170;28;19924;-54
2022/07/16 05:02:57;;;;;;;;;;;11.90;99.90;;;;;;5087074;28;19928;-55
2022/07/16 05:05:31;;;;;;;;;;;12.00;99.90;;;;;;5088586;28;20241;-56
2022/07/16 05:07:59;;;;;;;;;;;12.00;99.90;;;;;;5084904;28;20379;-58
2022/07/16 05:10:28;;;;;;;;;;;12.10;99.90;;;;;;5088977;28;19932;-58
2022/07/16 05:12:56;;;;;;;;;;;12.10;99.90;;;;;;5074625;28;19928;-57
2022/07/16 05:15:24;;;;;;;;;;;12.20;99.90;;;;;;5069957;28;19932;-59
2022/07/16 05:17:52;;;;;;;;;;;12.30;99.90;;;;;;5084111;28;19930;-58
2022/07/16 05:20:19;;;;;;;;;;;12.30;99.90;;;;;;5075262;28;19924;-56
2022/07/16 05:22:47;;;;;;;;;;;12.30;99.90;;;;;;5091549;28;19931;-58
2022/07/16 05:25:15;;;;;;;;;;;12.30;99.90;;;;;;5107846;28;20299;-58
2022/07/16 05:27:43;;;;;;;;;;;12.30;99.90;;;;;;5099844;28;19928;-59
2022/07/16 05:30:11;;;;;;;;;;;12.40;99.90;;;;;;5086355;28;19928;-59
2022/07/16 05:32:40;;;;;;;;;;;12.40;99.90;;;;;;5088062;28;19924;-60
2022/07/16 05:35:09;;;;;;;;;;;12.40;99.90;;;;;;5086089;28;19932;-59
2022/07/16 05:37:37;;;;;;;;;;;12.40;99.90;;;;;;5081579;28;19932;-60
2022/07/16 05:40:05;;;;;;;;;;;12.40;99.90;;;;;;5104284;28;19928;-60
2022/07/16 05:42:33;;;;;;;;;;;12.40;99.90;;;;;;5087434;28;19935;-58
2022/07/16 05:45:01;;;;;;;;;;;12.50;99.90;;;;;;5085977;28;19931;-58
2022/07/16 05:47:31;;;;;;;;;;;12.40;99.90;;;;;;5092877;28;19924;-59
2022/07/16 05:49:59;;;;;;;;;;;12.40;99.90;;;;;;5073394;28;19931;-60
2022/07/16 05:52:26;;;;;;;;;;;12.40;99.90;;;;;;5086285;28;19928;-59
2022/07/16 05:54:54;;;;;;;;;;;12.40;99.90;;;;;;5087015;28;19924;-57
2022/07/16 05:57:22;;;;;;;;;;;12.50;99.90;;;;;;5092416;28;19931;-56
2022/07/16 05:59:49;;;;;;;;;;;12.50;99.90;;;;;;5106129;28;19924;-57
2022/07/16 06:02:16;;;;;;;;;;;12.50;99.90;;;;;;5092687;28;19932;-54
2022/07/16 06:04:44;;;;;;;;;;;12.50;99.90;;;;;;5074273;28;20302;-57
2022/07/16 06:07:12;;;;;;;;;;;12.60;99.90;;;;;;5073597;28;19948;-54
2022/07/16 06:09:39;;;;;;;;;;;12.70;99.90;;;;;;5073759;28;19924;-55
2022/07/16 06:12:06;;;;;;;;;;;12.80;99.90;;;;;;5089572;28;19932;-55
2022/07/16 06:14:34;;;;;;;;;;;12.90;99.90;;;;;;5083633;28;19928;-55
2022/07/16 06:17:01;;;;;;;;;;;13.00;99.90;;;;;;5078797;28;19928;-58
2022/07/16 06:19:29;;;;;;;;;;;13.10;99.90;;;;;;5090127;28;20485;-59
2022/07/16 06:21:56;;;;;;;;;;;13.20;99.90;;;;;;5088676;28;19924;-60
2022/07/16 06:24:24;;;;;;;;;;;13.30;99.90;;;;;;5071417;28;19931;-59
2022/07/16 06:26:51;;;;;;;;;;;13.30;99.90;;;;;;5066556;28;20296;-63
2022/07/16 06:29:19;;;;;;;;;;;13.40;99.90;;;;;;5082348;28;19931;-60
2022/07/16 06:31:46;;;;;;;;;;;13.60;99.90;;;;;;5067464;28;19928;-58
2022/07/16 06:34:14;;;;;;;;;;;13.70;99.90;;;;;;5070172;28;20256;-57
2022/07/16 06:36:41;;;;;;;;;;;13.70;99.90;;;;;;5076004;28;20422;-58
2022/07/16 06:39:09;;;;;;;;;;;13.90;99.90;;;;;;5082788;28;19934;-56
2022/07/16 06:41:37;;;;;;;;;;;14.10;99.90;;;;;;5082273;28;19925;-54
2022/07/16 06:44:05;;;;;;;;;;;14.20;99.90;;;;;;5108488;28;19923;-59
2022/07/16 06:46:32;;;;;;;;;;;14.40;99.90;;;;;;5104218;28;19931;-59
2022/07/16 06:49:00;;;;;;;;;;;14.60;99.90;;;;;;5091419;28;20547;-58
2022/07/16 06:51:27;;;;;;;;;;;14.70;99.90;;;;;;5073264;28;19932;-59
2022/07/16 06:53:55;;;;;;;;;;;14.90;99.90;;;;;;5087759;28;19924;-59
2022/07/16 06:56:22;;;;;;;;;;;15.10;99.90;;;;;;5088814;28;19931;-60
2022/07/16 06:58:50;;;;;;;;;;;15.30;99.90;;;;;;5084771;28;19932;-59
2022/07/16 07:01:18;;;;;;;;;;;15.40;99.90;;;;;;5084238;28;19924;-59
2022/07/16 07:03:45;;;;;;;;;;;15.50;99.90;;;;;;5093897;28;19931;-56
2022/07/16 07:06:13;;;;;;;;;;;15.60;99.90;;;;;;5081505;28;19935;-60
2022/07/16 07:08:41;;;;;;;;;;;15.70;99.90;;;;;;5088351;28;19925;-59
2022/07/16 07:11:15;;;;;;;;;;;15.80;99.90;;;;;;5069298;28;20384;-59
2022/07/16 07:13:43;;;;;;;;;;;15.90;99.90;;;;;;5098510;28;19935;-56
2022/07/16 07:16:11;;;;;;;;;;;16.00;99.90;;;;;;5083805;28;20380;-58
2022/07/16 07:18:38;;;;;;;;;;;16.10;99.90;;;;;;5093248;28;19935;-61
2022/07/16 07:21:06;;;;;;;;;;;16.20;99.90;;;;;;5064330;28;19924;-55
2022/07/16 07:23:33;;;;;;;;;;;16.30;99.90;;;;;;5068559;28;19928;-55
2022/07/16 07:26:01;;;;;;;;;;;16.30;99.90;;;;;;5067884;28;20303;-56
2022/07/16 07:28:28;;;;;;;;;;;16.40;99.90;;;;;;5099400;28;19935;-54
2022/07/16 07:30:59;;;;;;;;;;;16.50;99.90;;;;;;5109463;28;19939;-56
2022/07/16 07:33:26;;;;;;;;;;;16.60;99.90;;;;;;5095581;28;19935;-55
2022/07/16 07:35:54;;;;;;;;;;;16.70;99.90;;;;;;5067157;28;20480;-59
2022/07/16 07:38:21;;;;;;;;;;;16.80;99.90;;;;;;5076548;28;19928;-59
2022/07/16 07:40:49;;;;;;;;;;;16.80;99.90;;;;;;5082157;28;19924;-59
2022/07/16 07:43:19;;;;;;;;;;;17.00;99.90;;;;;;5100002;28;19923;-57
2022/07/16 07:45:46;;;;;;;;;;;17.10;99.90;;;;;;5067088;28;19925;-57
2022/07/16 07:48:14;;;;;;;;;;;17.20;99.90;;;;;;5084532;28;19924;-58
2022/07/16 07:50:41;;;;;;;;;;;17.20;99.90;;;;;;5070486;28;19924;-58
2022/07/16 07:53:09;;;;;;;;;;;17.10;99.90;;;;;;5077584;28;19925;-57
2022/07/16 07:55:37;;;;;;;;;;;17.10;99.90;;;;;;5085575;28;19925;-59
2022/07/16 07:58:05;;;;;;;;;;;17.10;99.90;;;;;;5095720;28;19924;-59
2022/07/16 08:00:33;;;;;;;;;;;17.00;99.90;;;;;;5096512;28;19939;-56
2022/07/16 08:03:08;;;;;;;;;;;17.00;99.90;;;;;;5094678;28;19928;-60
2022/07/16 08:05:36;;;;;;;;;;;17.00;99.90;;;;;;5071197;28;19924;-60
2022/07/16 08:08:04;;;;;;;;;;;17.00;99.90;;;;;;5085079;28;19923;-58
2022/07/16 08:10:31;;;;;;;;;;;17.00;99.90;;;;;;5099109;28;19927;-54
2022/07/16 08:12:59;;;;;;;;;;;17.10;99.90;;;;;;5097293;28;20298;-59
2022/07/16 08:15:26;;;;;;;;;;;17.10;99.90;;;;;;5080288;28;19931;-57
2022/07/16 08:17:54;;;;;;;;;;;17.10;99.90;;;;;;5090908;28;19935;-59
2022/07/16 08:20:21;;;;;;;;;;;17.20;99.90;;;;;;5082657;28;19931;-59
2022/07/16 08:22:49;;;;;;;;;;;17.20;99.90;;;;;;5079427;28;19935;-58
2022/07/16 08:28:03;;;;;;;;;;;17.30;99.90;;;;;;5079701;28;19955;-58
2022/07/16 08:30:31;;;;;;;;;;;17.30;99.90;;;;;;5090400;28;19928;-54
2022/07/16 08:32:58;;;;;;;;;;;17.40;99.90;;;;;;5088543;28;19928;-58
2022/07/16 08:35:26;;;;;;;;;;;17.40;99.90;;;;;;5092902;28;19923;-59
2022/07/16 08:37:54;;;;;;;;;;;17.50;99.90;;;;;;5105011;28;19946;-55
2022/07/16 08:40:22;;;;;;;;;;;17.50;99.90;;;;;;5075247;28;19928;-57
2022/07/16 08:42:50;;;;;;;;;;;17.60;99.90;;;;;;5096983;28;19923;-59
2022/07/16 08:45:19;;;;;;;;;;;17.70;99.90;;;;;;5095745;28;19933;-58
2022/07/16 08:47:48;;;;;;;;;;;17.80;99.90;;;;;;5092481;28;19924;-58
2022/07/16 08:50:15;;;;;;;;;;;18.00;99.90;;;;;;5088743;28;20269;-56
2022/07/16 08:52:47;;;;;;;;;;;18.00;99.90;;;;;;5086631;28;19924;-59
2022/07/16 08:55:15;;;;;;;;;;;18.20;99.90;;;;;;5091561;28;19924;-57
2022/07/16 08:57:46;;;;;;;;;;;18.40;99.90;;;;;;5083725;28;19924;-59
2022/07/16 09:00:13;;;;;;;;;;;18.50;99.90;;;;;;5081543;28;20376;-59
2022/07/16 09:02:41;;;;;;;;;;;18.60;99.70;;;;;;5079191;28;20375;-59
2022/07/16 09:05:09;;;;;;;;;;;18.70;99.50;;;;;;5076431;28;20288;-59
2022/07/16 09:07:37;;;;;;;;;;;18.80;99.10;;;;;;5070726;28;19925;-60
2022/07/16 09:10:05;;;;;;;;;;;18.90;99.10;;;;;;5076078;28;20426;-58
2022/07/16 09:12:34;;;;;;;;;;;18.90;98.90;;;;;;5087740;28;19924;-58
2022/07/16 09:15:21;;;;;;;;;;;19.00;98.60;;;;;;5072015;28;19935;-57
2022/07/16 09:18:07;;;;;;;;;;;19.10;98.50;;;;;;5092467;28;19928;-58
2022/07/16 09:20:35;;;;;;;;;;;19.10;98.20;;;;;;5069377;28;20544;-62
2022/07/16 09:23:03;;;;;;;;;;;19.00;98.20;;;;;;5071758;28;19924;-57
2022/07/16 09:25:31;;;;;;;;;;;19.00;98.10;;;;;;5069977;28;20395;-57
2022/07/16 09:27:59;;;;;;;;;;;19.00;98.00;;;;;;5089580;28;20287;-62
2022/07/16 09:30:27;;;;;;;;;;;19.10;98.20;;;;;;5090991;28;19939;-59
2022/07/16 09:33:10;;;;;;;;;;;19.10;98.10;;;;;;5072201;28;21400;-61
2022/07/16 09:35:37;;;;;;;;;;;19.00;97.80;;;;;;5072875;28;19924;-60
2022/07/16 09:38:09;;;;;;;;;;;19.00;97.30;;;;;;5075429;28;19925;-62
2022/07/16 09:40:45;;;;;;;;;;;19.10;97.20;;;;;;5070398;28;19925;-57
2022/07/16 09:43:15;;;;;;;;;;;19.10;97.20;;;;;;5078974;28;19928;-59
2022/07/16 09:45:43;;;;;;;;;;;19.10;97.30;;;;;;5069033;28;20014;-58
2022/07/16 09:48:18;;;;;;;;;;;19.10;97.00;;;;;;5083368;28;19924;-59
2022/07/16 09:50:45;;;;;;;;;;;19.00;96.80;;;;;;5071344;28;19931;-59
2022/07/16 09:53:14;;;;;;;;;;;18.80;97.00;;;;;;5080018;28;19924;-59
2022/07/16 09:56:02;;;;;;;;;;;18.90;97.30;;;;;;5083664;28;19932;-60
2022/07/16 09:58:31;;;;;;;;;;;18.90;97.30;;;;;;5074664;28;19928;-58
2022/07/16 10:00:58;;;;;;;;;;;19.10;97.40;;;;;;5078279;28;19928;-55
2022/07/16 10:03:27;;;;;;;;;;;19.30;97.40;;;;;;5071296;28;20299;-58
2022/07/16 10:05:55;;;;;;;;;;;19.40;97.20;;;;;;5075690;28;19924;-60
2022/07/16 10:08:23;;;;;;;;;;;19.60;96.60;;;;;;5081888;28;19925;-58
2022/07/16 10:10:51;;;;;;;;;;;19.60;96.50;;;;;;5088145;28;19924;-57
2022/07/16 10:13:22;;;;;;;;;;;19.70;96.20;;;;;;5077079;28;19938;-59
2022/07/16 10:15:50;;;;;;;;;;;19.70;96.30;;;;;;5081406;28;19935;-59
2022/07/16 10:18:36;;;;;;;;;;;19.90;96.40;;;;;;5079691;28;19925;-59
2022/07/16 10:21:09;;;;;;;;;;;20.00;96.40;;;;;;5081960;28;19924;-60
2022/07/16 10:23:37;;;;;;;;;;;20.10;95.60;;;;;;5086255;28;19932;-58
2022/07/16 10:26:16;;;;;;;;;;;20.20;95.10;;;;;;5073696;28;19931;-60
2022/07/16 10:28:46;;;;;;;;;;;20.20;95.10;;;;;;5087504;28;19931;-59
2022/07/16 10:31:32;;;;;;;;;;;20.20;95.10;;;;;;5079754;28;19924;-56
2022/07/16 10:34:14;;;;;;;;;;;20.30;95.30;;;;;;5080425;28;19925;-57
2022/07/16 10:36:48;;;;;;;;;;;20.40;95.20;;;;;;5079033;28;19935;-59
2022/07/16 10:39:16;;;;;;;;;;;20.60;95.20;;;;;;5070106;28;19925;-58
2022/07/16 10:41:48;;;;;;;;;;;20.70;95.10;;;;;;5078771;28;19929;-59
2022/07/16 10:44:16;;;;;;;;;;;20.90;94.70;;;;;;5073718;28;19925;-58
2022/07/16 10:46:52;;;;;;;;;;;21.00;94.60;;;;;;5077039;28;20269;-58
2022/07/16 10:49:20;;;;;;;;;;;21.20;94.30;;;;;;5077716;28;19924;-61
2022/07/16 10:51:57;;;;;;;;;;;21.20;94.40;;;;;;5066521;28;19933;-58
2022/07/16 10:54:30;;;;;;;;;;;21.40;94.30;;;;;;5082716;28;19924;-59
2022/07/16 10:56:58;;;;;;;;;;;21.60;93.80;;;;;;5074962;28;19932;-60
2022/07/16 10:59:28;;;;;;;;;;;21.60;93.50;;;;;;5078051;28;19924;-58
2022/07/16 11:01:58;;;;;;;;;;;21.70;93.00;;;;;;5066514;28;20010;-57
2022/07/16 11:04:27;;;;;;;;;;;21.70;93.00;;;;;;5073777;28;19925;-56
2022/07/16 11:06:56;;;;;;;;;;;21.80;93.10;;;;;;5069119;28;19928;-59
2022/07/16 11:09:28;;;;;;;;;;;21.90;93.00;;;;;;5070916;28;20289;-54
2022/07/16 11:12:04;;;;;;;;;;;22.10;92.70;;;;;;5080650;28;19928;-55
2022/07/16 11:14:32;;;;;;;;;;;22.30;92.50;;;;;;5085124;28;19939;-54
2022/07/16 11:16:59;;;;;;;;;;;22.40;92.70;;;;;;5073781;28;19924;-55
2022/07/16 11:19:29;;;;;;;;;;;22.60;92.50;;;;;;5071459;28;21515;-55
2022/07/16 11:21:58;;;;;;;;;;;22.80;92.20;;;;;;5078766;28;19928;-56
2022/07/16 11:24:27;;;;;;;;;;;22.80;91.90;;;;;;5072227;28;19942;-54
2022/07/16 11:26:55;;;;;;;;;;;22.90;91.00;;;;;;5056847;28;19944;-55
2022/07/16 11:29:24;;;;;;;;;;;22.90;90.80;;;;;;5076669;28;19924;-55
2022/07/16 11:31:52;;;;;;;;;;;22.80;90.90;;;;;;5074647;28;19928;-56
2022/07/16 11:34:24;;;;;;;;;;;22.80;90.90;;;;;;5071484;28;20376;-55
2022/07/16 11:36:53;;;;;;;;;;;22.80;90.90;;;;;;5081260;28;19929;-55
2022/07/16 11:39:22;;;;;;;;;;;22.90;90.60;;;;;;5073125;28;19925;-55
2022/07/16 11:41:53;;;;;;;;;;;23.00;90.20;;;;;;5075018;28;19928;-55
2022/07/16 11:44:40;;;;;;;;;;;23.10;90.40;;;;;;5074611;28;19933;-55
2022/07/16 11:47:09;;;;;;;;;;;23.20;90.10;;;;;;5074495;28;19928;-56
2022/07/16 11:49:36;;;;;;;;;;;23.40;89.80;;;;;;5076990;28;20390;-56
2022/07/16 11:52:05;;;;;;;;;;;23.60;89.40;;;;;;5077277;28;19931;-55
2022/07/16 11:54:37;;;;;;;;;;;23.90;89.60;;;;;;5068463;28;19925;-60
2022/07/16 11:57:06;;;;;;;;;;;24.10;87.00;;;;;;5073195;28;19924;-55
2022/07/16 11:59:34;;;;;;;;;;;24.40;87.10;;;;;;5076886;28;19929;-56
2022/07/16 12:02:06;;;;;;;;;;;24.60;86.20;;;;;;5080835;28;19939;-56
2022/07/16 12:04:39;;;;;;;;;;;24.90;87.20;;;;;;5080890;28;20307;-59
2022/07/16 12:07:08;;;;;;;;;;;25.40;85.90;;;;;;5073683;28;19955;-59
2022/07/16 12:09:37;;;;;;;;;;;25.50;82.80;;;;;;5094636;28;19924;-57
2022/07/16 12:12:08;;;;;;;;;;;25.70;81.40;;;;;;5075857;28;19925;-59
2022/07/16 12:14:50;;;;;;;;;;;25.90;82.60;;;;;;5091530;28;19924;-59
2022/07/16 12:17:39;;;;;;;;;;;26.10;82.00;;;;;;5091877;28;19923;-59
2022/07/16 12:20:09;;;;;;;;;;;26.40;80.00;;;;;;5100175;28;19928;-59
2022/07/16 12:22:45;;;;;;;;;;;26.60;81.90;;;;;;5081180;28;19928;-60
2022/07/16 12:25:27;;;;;;;;;;;26.90;80.50;;;;;;5086119;28;19932;-58
2022/07/16 12:27:57;;;;;;;;;;;26.90;78.60;;;;;;5093737;28;19931;-58
2022/07/16 12:30:32;;;;;;;;;;;26.90;78.70;;;;;;5107758;28;19935;-57
2022/07/16 12:33:00;;;;;;;;;;;27.00;78.70;;;;;;5100108;28;19923;-59
2022/07/16 12:35:42;;;;;;;;;;;27.20;77.30;;;;;;5105633;28;19935;-56
2022/07/16 12:38:29;;;;;;;;;;;27.20;76.60;;;;;;5081197;28;19928;-57
2022/07/16 12:40:56;;;;;;;;;;;27.30;74.20;;;;;;5076029;28;19924;-57
2022/07/16 12:43:24;;;;;;;;;;;27.30;74.20;;;;;;5104687;28;20295;-56
2022/07/16 12:45:52;;;;;;;;;;;27.40;75.70;;;;;;5096094;28;19947;-57
2022/07/16 12:48:19;;;;;;;;;;;27.60;74.20;;;;;;5080861;28;19924;-56
2022/07/16 12:50:47;;;;;;;;;;;27.80;74.10;;;;;;5075119;28;19925;-58
2022/07/16 12:53:14;;;;;;;;;;;28.10;71.90;;;;;;5077222;28;19943;-59
2022/07/16 13:01:20;;;;;;;;;;;28.30;71.30;;;;;;5090070;28;19943;-58
2022/07/16 13:03:48;;;;;;;;;;;28.30;71.00;;;;;;5080643;28;19924;-59
2022/07/16 13:06:15;;;;;;;;;;;28.50;71.40;;;;;;5083246;28;19931;-57
2022/07/16 13:08:44;;;;;;;;;;;28.80;70.00;;;;;;5088330;28;19930;-58
2022/07/16 13:11:12;;;;;;;;;;;29.00;69.70;;;;;;5084020;28;19931;-57
2022/07/16 13:13:40;;;;;;;;;;;29.20;68.40;;;;;;5087691;28;19932;-58
2022/07/16 13:16:08;;;;;;;;;;;29.50;70.20;;;;;;5085338;28;19928;-59
2022/07/16 13:18:36;;;;;;;;;;;29.90;68.20;;;;;;5083652;28;19924;-59
2022/07/16 13:21:05;;;;;;;;;;;30.10;68.10;;;;;;5080398;28;19931;-59
2022/07/16 13:23:34;;;;;;;;;;;30.40;67.90;;;;;;5088241;28;19928;-59
2022/07/16 13:26:02;;;;;;;;;;;30.60;67.10;;;;;;5076681;28;20323;-59
2022/07/16 13:28:30;;;;;;;;;;;30.80;66.30;;;;;;5094296;28;19931;-58
2022/07/16 13:30:58;;;;;;;;;;;30.90;65.90;;;;;;5089473;28;19924;-57
2022/07/16 13:33:26;;;;;;;;;;;31.00;66.70;;;;;;5070907;28;19924;-59
2022/07/16 13:35:55;;;;;;;;;;;31.10;64.80;;;;;;5075278;28;19932;-58
2022/07/16 13:38:22;;;;;;;;;;;31.00;64.80;;;;;;5087277;28;19939;-57
2022/07/16 13:40:52;;;;;;;;;;;31.00;62.90;;;;;;5084746;28;19924;-58
2022/07/16 13:43:20;;;;;;;;;;;31.10;63.60;;;;;;5074105;28;19931;-57
2022/07/16 13:45:48;;;;;;;;;;;31.10;63.40;;;;;;5070108;28;19928;-57
2022/07/16 13:48:16;;;;;;;;;;;31.10;63.00;;;;;;5082573;28;19925;-58
2022/07/16 13:50:44;;;;;;;;;;;31.10;62.90;;;;;;5079309;28;19929;-58
2022/07/16 13:53:12;;;;;;;;;;;30.90;63.00;;;;;;5071785;28;19928;-57
2022/07/16 13:55:39;;;;;;;;;;;30.70;63.50;;;;;;5086346;28;19935;-56
2022/07/16 13:58:13;;;;;;;;;;;30.70;63.10;;;;;;5088472;28;19955;-56
2022/07/16 14:00:40;;;;;;;;;;;30.70;63.30;;;;;;5086345;28;19924;-56
2022/07/16 14:03:08;;;;;;;;;;;30.80;63.40;;;;;;5096442;28;19923;-56
2022/07/16 14:05:36;;;;;;;;;;;30.90;63.80;;;;;;5097738;28;19924;-57
2022/07/16 14:08:04;;;;;;;;;;;31.00;62.30;;;;;;5084693;28;19932;-56
2022/07/16 14:10:32;;;;;;;;;;;31.10;62.60;;;;;;5069616;28;19947;-57
2022/07/16 14:12:59;;;;;;;;;;;31.20;62.70;;;;;;5078970;28;19928;-58
2022/07/16 14:15:30;;;;;;;;;;;31.40;61.10;;;;;;5079678;28;19931;-57
2022/07/16 14:17:59;;;;;;;;;;;31.40;60.70;;;;;;5079888;28;19924;-57
2022/07/16 14:20:27;;;;;;;;;;;31.30;60.10;;;;;;5072230;28;20445;-57
2022/07/16 14:22:55;;;;;;;;;;;31.30;60.40;;;;;;5081768;28;20368;-58
2022/07/16 14:25:23;;;;;;;;;;;31.40;60.60;;;;;;5067332;28;19924;-58
2022/07/16 14:27:52;;;;;;;;;;;31.70;61.00;;;;;;5071370;28;19931;-56
2022/07/16 14:30:20;;;;;;;;;;;31.90;60.80;;;;;;5086590;28;19935;-57
2022/07/16 14:32:48;;;;;;;;;;;32.10;59.50;;;;;;5082170;28;19930;-58
2022/07/16 14:35:16;;;;;;;;;;;32.00;59.80;;;;;;5077737;28;19932;-57
2022/07/16 14:37:44;;;;;;;;;;;31.90;58.60;;;;;;5078808;28;19924;-57